createdAt,value
2023-03-21T00:00:45.481Z,96423.10
2023-03-21T00:03:21.517Z,96419.64
2023-03-21T00:05:51.413Z,96424.04
2023-03-21T00:08:22.527Z,96420.81
2023-03-21T00:10:56.984Z,96420.76
2023-03-21T00:13:25.837Z,96421.48
2023-03-21T00:16:26.150Z,96417.87
2023-03-21T00:18:42.582Z,96415.88
2023-03-21T00:21:46.152Z,96413.02
2023-03-21T00:24:01.439Z,96414.21
2023-03-21T00:26:28.124Z,96412.27
2023-03-21T00:28:54.756Z,96410.08
2023-03-21T00:31:21.377Z,96411.75
2023-03-21T00:33:50.116Z,96410.21
2023-03-21T00:36:17.001Z,96408.36
2023-03-21T00:38:44.255Z,96407.98
2023-03-21T00:41:25.793Z,96407.83
2023-03-21T00:43:58.805Z,96412.52
2023-03-21T00:46:32.971Z,96408.77
2023-03-21T00:49:09.251Z,96409.34
2023-03-21T00:51:36.190Z,96411.48
2023-03-21T00:54:05.024Z,96410.95
2023-03-21T00:56:31.919Z,96405.98
2023-03-21T00:58:58.863Z,96401.11
2023-03-21T01:01:31.225Z,96403.04
2023-03-21T01:04:06.994Z,96402.21
2023-03-21T01:06:40.220Z,96402.33
2023-03-21T01:09:12.469Z,96400.04
2023-03-21T01:11:39.482Z,96399.45
2023-03-21T01:14:21.465Z,96400.89
2023-03-21T01:16:52.650Z,96402.39
2023-03-21T01:19:30.904Z,96398.13
2023-03-21T01:22:04.588Z,96396.46
2023-03-21T01:24:31.308Z,96393.30
2023-03-21T01:26:59.086Z,96390.55
2023-03-21T01:29:25.777Z,96384.48
2023-03-21T01:31:52.524Z,96381.30
2023-03-21T01:34:19.300Z,96378.46
2023-03-21T01:36:46.114Z,96375.09
2023-03-21T01:39:17.038Z,96373.56
2023-03-21T01:41:44.694Z,96371.98
2023-03-21T01:44:27.797Z,96368.93
2023-03-21T01:47:12.299Z,96369.29
2023-03-21T01:49:49.042Z,96366.33
2023-03-21T01:52:35.459Z,96365.97
2023-03-21T01:55:11.175Z,96366.52
2023-03-21T01:58:03.997Z,96366.31
2023-03-21T02:00:33.726Z,96365.59
2023-03-21T02:03:15.192Z,96364.31
2023-03-21T02:05:55.593Z,96362.33
2023-03-21T02:08:30.518Z,96362.06
2023-03-21T02:11:09.280Z,96360.91
2023-03-21T02:13:40.770Z,96360.98
2023-03-21T02:16:13.294Z,96361.42
2023-03-21T02:19:12.636Z,96361.33
2023-03-21T02:22:04.898Z,96360.17
2023-03-21T02:25:21.167Z,96355.48
2023-03-21T02:27:55.216Z,96357.40
2023-03-21T02:30:29.653Z,96353.98
2023-03-21T02:32:58.580Z,96355.23
2023-03-21T02:35:41.536Z,96354.97
2023-03-21T02:38:22.135Z,96358.86
2023-03-21T02:41:00.401Z,96361.52
2023-03-21T02:43:50.099Z,96364.21
2023-03-21T02:46:24.393Z,96365.98
2023-03-21T02:49:27.967Z,96361.88
2023-03-21T02:52:00.288Z,96365.14
2023-03-21T02:54:47.241Z,96365.02
2023-03-21T02:57:18.719Z,96363.81
2023-03-21T02:59:55.405Z,96362.58
2023-03-21T03:02:28.568Z,96363.23
2023-03-21T03:04:55.733Z,96365.05
2023-03-21T03:07:57.954Z,96364.04
2023-03-21T03:10:42.918Z,96364.14
2023-03-21T03:13:25.197Z,96364.21
2023-03-21T03:16:16.055Z,96366.98
2023-03-21T03:18:54.384Z,96365.23
2023-03-21T03:21:35.380Z,96360.55
2023-03-21T03:24:26.734Z,96357.71
2023-03-21T03:26:58.514Z,96358.79
2023-03-21T03:29:29.898Z,96357.23
2023-03-21T03:32:14.844Z,96357.23
2023-03-21T03:34:49.411Z,96360.55
2023-03-21T03:37:21.149Z,96355.90
2023-03-21T03:40:05.429Z,96355.26
2023-03-21T03:42:40.058Z,96360.59
2023-03-21T03:45:15.884Z,96360.36
2023-03-21T03:47:56.356Z,96357.05
2023-03-21T03:50:33.408Z,96351.18
2023-03-21T03:53:28.233Z,96354.02
2023-03-21T03:55:55.843Z,96358.20
2023-03-21T03:58:33.383Z,96354.36
2023-03-21T04:01:02.944Z,96354.27
2023-03-21T04:03:39.234Z,96354.29
2023-03-21T04:06:13.901Z,96353.89
2023-03-21T04:08:40.790Z,96349.96
2023-03-21T04:11:07.765Z,96349.61
2023-03-21T04:13:36.657Z,96352.86
2023-03-21T04:16:11.035Z,96354.59
2023-03-21T04:18:38.583Z,96352.66
2023-03-21T04:21:13.076Z,96353.87
2023-03-21T04:23:40.974Z,96353.11
2023-03-21T04:26:08.577Z,96357.06
2023-03-21T04:28:39.182Z,96356.62
2023-03-21T04:31:26.605Z,96361.20
2023-03-21T04:34:03.009Z,96360.70
2023-03-21T04:36:30.121Z,96359.09
2023-03-21T04:39:00.924Z,96362.27
2023-03-21T04:41:28.137Z,96360.63
2023-03-21T04:43:55.896Z,96360.30
2023-03-21T04:46:23.545Z,96361.48
2023-03-21T04:48:50.714Z,96362.71
2023-03-21T04:51:17.653Z,96363.66
2023-03-21T04:53:46.291Z,96362.56
2023-03-21T04:56:13.405Z,96366.52
2023-03-21T04:58:41.456Z,96369.21
2023-03-21T05:01:08.444Z,96367.17
2023-03-21T05:03:39.524Z,96365.79
2023-03-21T05:06:10.168Z,96369.20
2023-03-21T05:08:36.902Z,96371.38
2023-03-21T05:11:04.644Z,96372.05
2023-03-21T05:13:33.570Z,96373.73
2023-03-21T05:16:00.413Z,96374.98
2023-03-21T05:18:27.134Z,96372.44
2023-03-21T05:21:10.130Z,96376.38
2023-03-21T05:23:41.474Z,96379.41
2023-03-21T05:26:09.239Z,96382.33
2023-03-21T05:28:44.177Z,96383.54
2023-03-21T05:31:15.132Z,96383.77
2023-03-21T05:33:43.988Z,96383.04
2023-03-21T05:36:15.252Z,96382.16
2023-03-21T05:38:47.824Z,96383.39
2023-03-21T05:41:18.160Z,96377.77
2023-03-21T05:43:45.851Z,96382.22
2023-03-21T05:46:15.357Z,96384.51
2023-03-21T05:48:42.061Z,96385.25
2023-03-21T05:51:14.921Z,96383.83
2023-03-21T05:53:41.568Z,96383.02
2023-03-21T05:56:08.960Z,96385.31
2023-03-21T05:58:46.604Z,96385.62
2023-03-21T06:01:13.424Z,96386.06
2023-03-21T06:03:41.369Z,96389.87
2023-03-21T06:06:15.437Z,96393.05
2023-03-21T06:08:52.951Z,96390.58
2023-03-21T06:11:30.112Z,96392.27
2023-03-21T06:14:17.264Z,96388.05
2023-03-21T06:16:45.455Z,96391.29
2023-03-21T06:19:12.582Z,96389.25
2023-03-21T06:22:02.009Z,96389.35
2023-03-21T06:24:30.853Z,96393.27
2023-03-21T06:26:57.491Z,96394.55
2023-03-21T06:29:25.262Z,96391.62
2023-03-21T06:31:51.950Z,96391.43
2023-03-21T06:34:18.584Z,96392.28
2023-03-21T06:36:46.466Z,96395.25
2023-03-21T06:39:15.522Z,96391.13
2023-03-21T06:41:42.445Z,96394.35
2023-03-21T06:44:09.027Z,96391.61
2023-03-21T06:46:41.797Z,96388.01
2023-03-21T06:49:09.084Z,96389.66
2023-03-21T06:51:36.963Z,96390.27
2023-03-21T06:54:13.959Z,96390.45
2023-03-21T06:57:10.793Z,96392.61
2023-03-21T06:59:40.862Z,96391.08
2023-03-21T07:02:21.283Z,96392.20
2023-03-21T07:04:57.122Z,96393.14
2023-03-21T07:07:27.047Z,96391.70
2023-03-21T07:09:53.689Z,96397.11
2023-03-21T07:12:22.670Z,96396.00
2023-03-21T07:15:04.350Z,96394.30
2023-03-21T07:17:31.675Z,96394.34
2023-03-21T07:19:59.288Z,96392.05
2023-03-21T07:22:26.096Z,96393.29
2023-03-21T07:25:04.382Z,96391.84
2023-03-21T07:27:33.805Z,96389.16
2023-03-21T07:30:00.633Z,96391.93
2023-03-21T07:32:29.376Z,96391.44
2023-03-21T07:34:56.232Z,96387.89
2023-03-21T07:37:23.420Z,96387.55
2023-03-21T07:39:52.407Z,96380.88
2023-03-21T07:42:19.839Z,96377.31
2023-03-21T07:44:46.540Z,96376.27
2023-03-21T07:47:13.273Z,96373.97
2023-03-21T07:49:40.025Z,96372.96
2023-03-21T07:52:07.297Z,96368.80
2023-03-21T07:54:34.038Z,96368.59
2023-03-21T07:57:00.740Z,96362.34
2023-03-21T07:59:27.432Z,96367.27
2023-03-21T08:01:54.041Z,96368.20
2023-03-21T08:04:21.882Z,96369.23
2023-03-21T08:06:50.537Z,96368.16
2023-03-21T08:09:17.126Z,96366.20
2023-03-21T08:11:43.809Z,96364.08
2023-03-21T08:14:10.332Z,96361.73
2023-03-21T08:16:37.024Z,96357.83
2023-03-21T08:19:03.716Z,96355.25
2023-03-21T08:21:30.438Z,96355.73
2023-03-21T08:23:57.030Z,96359.60
2023-03-21T08:26:25.750Z,96359.87
2023-03-21T08:28:52.294Z,96359.41
2023-03-21T08:31:21.137Z,96352.69
2023-03-21T08:33:50.425Z,96357.42
2023-03-21T08:36:17.173Z,96351.70
2023-03-21T08:38:45.482Z,96349.86
2023-03-21T08:41:12.184Z,96349.91
2023-03-21T08:43:38.835Z,96351.66
2023-03-21T08:46:05.955Z,96357.29
2023-03-21T08:48:32.817Z,96359.11
2023-03-21T08:51:00.686Z,96359.26
2023-03-21T08:53:27.375Z,96354.79
2023-03-21T08:55:53.998Z,96355.13
2023-03-21T08:58:22.086Z,96351.92
2023-03-21T09:00:48.860Z,96353.80
2023-03-21T09:03:16.149Z,96355.04
2023-03-21T09:05:44.960Z,96355.63
2023-03-21T09:08:14.601Z,96359.49
2023-03-21T09:10:41.267Z,96354.57
2023-03-21T09:13:08.333Z,96356.52
2023-03-21T09:15:35.761Z,96355.70
2023-03-21T09:18:13.050Z,96351.52
2023-03-21T09:20:42.280Z,96350.89
2023-03-21T09:23:10.280Z,96349.02
2023-03-21T09:25:37.899Z,96349.61
2023-03-21T09:28:05.147Z,96351.19
2023-03-21T09:30:34.252Z,96346.29
2023-03-21T09:33:12.267Z,96346.70
2023-03-21T09:35:39.106Z,96345.55
2023-03-21T09:38:06.294Z,96349.02
2023-03-21T09:40:39.435Z,96346.66
2023-03-21T09:43:37.576Z,96339.06
2023-03-21T09:46:13.333Z,96338.02
2023-03-21T09:48:56.771Z,96336.14
2023-03-21T09:51:28.143Z,96339.84
2023-03-21T09:53:57.269Z,96338.46
2023-03-21T09:56:25.355Z,96338.52
2023-03-21T09:58:58.634Z,96345.11
2023-03-21T10:01:29.350Z,96342.46
2023-03-21T10:03:59.885Z,96341.22
2023-03-21T10:06:31.179Z,96337.83
2023-03-21T10:09:07.909Z,96340.52
2023-03-21T10:11:47.935Z,96338.65
2023-03-21T10:14:34.548Z,96336.94
2023-03-21T10:17:42.310Z,96332.23
2023-03-21T10:20:16.921Z,96331.95
2023-03-21T10:22:46.159Z,96330.96
2023-03-21T10:25:16.553Z,96325.89
2023-03-21T10:27:43.649Z,96329.98
2023-03-21T10:30:24.106Z,96324.89
2023-03-21T10:32:50.862Z,96331.46
2023-03-21T10:35:19.131Z,96326.63
2023-03-21T10:37:46.417Z,96324.67
2023-03-21T10:40:18.096Z,96321.52
2023-03-21T10:42:44.709Z,96323.52
2023-03-21T10:45:19.396Z,96324.04
2023-03-21T10:47:51.288Z,96321.45
2023-03-21T10:50:24.329Z,96320.14
2023-03-21T10:52:59.857Z,96315.58
2023-03-21T10:55:32.707Z,96312.47
2023-03-21T10:58:18.272Z,96312.27
2023-03-21T11:00:47.069Z,96315.92
2023-03-21T11:03:30.898Z,96317.98
2023-03-21T11:06:25.871Z,96311.47
2023-03-21T11:09:19.100Z,96316.59
2023-03-21T11:11:52.057Z,96318.08
2023-03-21T11:14:41.845Z,96319.42
2023-03-21T11:17:17.859Z,96322.59
2023-03-21T11:19:51.971Z,96321.41
2023-03-21T11:22:22.338Z,96318.08
2023-03-21T11:24:52.820Z,96318.79
2023-03-21T11:27:20.229Z,96311.79
2023-03-21T11:29:50.544Z,96314.85
2023-03-21T11:32:20.320Z,96306.90
2023-03-21T11:34:57.452Z,96299.09
2023-03-21T11:37:27.762Z,96287.09
2023-03-21T11:40:08.726Z,96281.36
2023-03-21T11:42:47.784Z,96279.33
2023-03-21T11:45:21.096Z,96276.06
2023-03-21T11:47:50.040Z,96272.19
2023-03-21T11:50:18.601Z,96266.60
2023-03-21T11:52:54.529Z,96259.80
2023-03-21T11:55:40.186Z,96254.52
2023-03-21T11:58:27.922Z,96251.15
2023-03-21T12:01:03.849Z,96243.27
2023-03-21T12:03:48.269Z,96241.54
2023-03-21T12:06:21.457Z,96237.65
2023-03-21T12:09:03.508Z,96236.04
2023-03-21T12:11:45.120Z,96238.57
2023-03-21T12:14:35.605Z,96236.78
2023-03-21T12:17:15.110Z,96232.05
2023-03-21T12:20:09.461Z,96228.17
2023-03-21T12:22:52.379Z,96225.98
2023-03-21T12:25:24.145Z,96228.59
2023-03-21T12:28:05.555Z,96226.44
2023-03-21T12:31:15.689Z,96226.94
2023-03-21T12:33:48.320Z,96227.39
2023-03-21T12:36:52.037Z,96231.70
2023-03-21T12:39:35.450Z,96241.77
2023-03-21T12:42:11.148Z,96254.65
2023-03-21T12:44:46.589Z,96270.11
2023-03-21T12:47:25.891Z,96270.84
2023-03-21T12:50:04.634Z,96253.11
2023-03-21T12:52:44.120Z,96261.32
2023-03-21T12:55:23.052Z,96279.63
2023-03-21T12:58:01.195Z,96299.23
2023-03-21T13:00:37.454Z,96316.59
2023-03-21T13:03:30.565Z,96317.12
2023-03-21T13:06:06.054Z,96314.34
2023-03-21T13:08:44.204Z,96309.56
2023-03-21T13:11:15.900Z,96300.27
2023-03-21T13:13:53.268Z,96288.09
2023-03-21T13:16:32.117Z,96280.63
2023-03-21T13:19:04.774Z,96280.41
2023-03-21T13:21:52.726Z,96279.34
2023-03-21T13:24:33.002Z,96274.35
2023-03-21T13:27:15.885Z,96266.06
2023-03-21T13:29:49.809Z,96262.20
2023-03-21T13:32:27.489Z,96259.44
2023-03-21T13:34:56.308Z,96255.95
2023-03-21T13:37:26.113Z,96255.66
2023-03-21T13:39:52.878Z,96257.41
2023-03-21T13:42:29.101Z,96263.33
2023-03-21T13:44:59.897Z,96260.93
2023-03-21T13:47:51.869Z,96253.36
2023-03-21T13:50:27.186Z,96252.21
2023-03-21T13:53:24.283Z,96251.63
2023-03-21T13:56:06.484Z,96251.94
2023-03-21T13:58:56.950Z,96251.50
2023-03-21T14:01:41.772Z,96254.89
2023-03-21T14:04:21.925Z,96254.25
2023-03-21T14:06:57.996Z,96252.89
2023-03-21T14:09:30.003Z,96255.66
2023-03-21T14:12:03.902Z,96253.55
2023-03-21T14:14:39.668Z,96249.78
2023-03-21T14:17:29.208Z,96244.09
2023-03-21T14:20:12.165Z,96235.11
2023-03-21T14:22:39.566Z,96232.40
2023-03-21T14:25:12.601Z,96229.14
2023-03-21T14:27:42.922Z,96223.88
2023-03-21T14:30:31.627Z,96217.23
2023-03-21T14:33:02.643Z,96217.40
2023-03-21T14:35:32.011Z,96213.30
2023-03-21T14:38:04.821Z,96208.10
2023-03-21T14:40:31.645Z,96208.55
2023-03-21T14:43:05.477Z,96209.70
2023-03-21T14:45:35.640Z,96207.29
2023-03-21T14:48:13.999Z,96209.88
2023-03-21T14:50:47.365Z,96213.60
2023-03-21T14:53:19.297Z,96218.09
2023-03-21T14:55:50.673Z,96218.75
2023-03-21T14:58:18.701Z,96221.38
2023-03-21T15:00:49.624Z,96221.31
2023-03-21T15:03:19.228Z,96219.41
2023-03-21T15:05:46.194Z,96215.83
2023-03-21T15:08:19.753Z,96216.33
2023-03-21T15:11:08.123Z,96215.82
2023-03-21T15:13:54.083Z,96224.49
2023-03-21T15:16:21.519Z,96219.31
2023-03-21T15:18:49.456Z,96217.08
2023-03-21T15:21:31.321Z,96221.67
2023-03-21T15:24:04.336Z,96216.71
2023-03-21T15:26:31.356Z,96217.94
2023-03-21T15:28:59.856Z,96225.83
2023-03-21T15:31:34.412Z,96229.79
2023-03-21T15:34:03.249Z,96234.23
2023-03-21T15:36:44.240Z,96242.88
2023-03-21T15:39:16.486Z,96246.42
2023-03-21T15:42:00.289Z,96247.48
2023-03-21T15:44:28.284Z,96255.02
2023-03-21T15:46:55.548Z,96252.73
2023-03-21T15:49:33.941Z,96249.25
2023-03-21T15:52:10.763Z,96243.77
2023-03-21T15:54:56.180Z,96241.02
2023-03-21T15:57:29.359Z,96235.40
2023-03-21T16:00:05.765Z,96228.96
2023-03-21T16:02:41.536Z,96225.98
2023-03-21T16:05:30.886Z,96219.54
2023-03-21T16:08:02.254Z,96218.98
2023-03-21T16:10:37.134Z,96216.90
2023-03-21T16:13:05.998Z,96224.92
2023-03-21T16:15:32.788Z,96229.29
2023-03-21T16:18:02.884Z,96227.34
2023-03-21T16:20:34.870Z,96221.77
2023-03-21T16:23:02.435Z,96219.08
2023-03-21T16:25:30.210Z,96220.45
2023-03-21T16:27:56.963Z,96219.70
2023-03-21T16:30:23.760Z,96217.36
2023-03-21T16:32:50.976Z,96219.61
2023-03-21T16:35:18.501Z,96224.38
2023-03-21T16:37:47.739Z,96228.35
2023-03-21T16:40:16.277Z,96225.71
2023-03-21T16:42:43.409Z,96226.20
2023-03-21T16:45:11.222Z,96230.25
2023-03-21T16:47:38.076Z,96230.98
2023-03-21T16:50:21.102Z,96234.60
2023-03-21T16:52:48.216Z,96239.05
2023-03-21T16:55:15.183Z,96240.55
2023-03-21T16:57:43.473Z,96241.59
2023-03-21T17:00:16.059Z,96242.67
2023-03-21T17:02:42.781Z,96243.40
2023-03-21T17:05:10.974Z,96242.31
2023-03-21T17:07:37.908Z,96241.35
2023-03-21T17:10:14.735Z,96240.82
2023-03-21T17:12:41.396Z,96250.42
2023-03-21T17:15:09.367Z,96257.73
2023-03-21T17:17:36.240Z,96256.61
2023-03-21T17:20:29.630Z,96260.80
2023-03-21T17:22:56.446Z,96268.50
2023-03-21T17:25:23.674Z,96268.64
2023-03-21T17:27:52.384Z,96274.05
2023-03-21T17:30:28.166Z,96270.21
2023-03-21T17:32:55.051Z,96270.16
2023-03-21T17:35:23.403Z,96276.84
2023-03-21T17:37:51.118Z,96282.89
2023-03-21T17:40:23.980Z,96284.09
2023-03-21T17:42:51.282Z,96284.34
2023-03-21T17:45:18.831Z,96288.02
2023-03-21T17:47:47.947Z,96290.22
2023-03-21T17:50:18.034Z,96295.90
2023-03-21T17:52:45.461Z,96301.40
2023-03-21T17:55:14.226Z,96302.38
2023-03-21T17:57:40.984Z,96304.85
2023-03-21T18:00:13.524Z,96307.23
2023-03-21T18:02:40.740Z,96309.90
2023-03-21T18:05:08.967Z,96310.91
2023-03-21T18:08:05.897Z,96314.59
2023-03-21T18:10:27.295Z,96316.13
2023-03-21T18:12:57.741Z,96317.80
2023-03-21T18:15:30.101Z,96322.24
2023-03-21T18:17:58.352Z,96326.36
2023-03-21T18:20:49.797Z,96324.38
2023-03-21T18:23:17.966Z,96326.24
2023-03-21T18:25:45.384Z,96325.33
2023-03-21T18:28:13.007Z,96328.33
2023-03-21T18:33:27.666Z,96328.41
2023-03-21T18:35:59.220Z,96330.20
2023-03-21T18:38:29.225Z,96329.73
2023-03-21T18:40:56.025Z,96327.41
2023-03-21T18:46:11.038Z,96335.38
2023-03-21T18:48:37.692Z,96337.64
2023-03-21T18:51:05.223Z,96340.79
2023-03-21T18:53:32.055Z,96341.95
2023-03-21T18:55:58.732Z,96341.27
2023-03-21T18:58:25.364Z,96342.52
2023-03-21T19:00:52.900Z,96343.29
2023-03-21T19:03:34.347Z,96340.36
2023-03-21T19:06:04.167Z,96338.50
2023-03-21T19:08:31.345Z,96338.61
2023-03-21T19:11:00.238Z,96338.63
2023-03-21T19:13:29.970Z,96337.73
2023-03-21T19:15:56.856Z,96334.05
2023-03-21T19:18:46.177Z,96332.21
2023-03-21T19:21:11.124Z,96328.59
2023-03-21T19:24:07.994Z,96332.48
2023-03-21T19:26:26.007Z,96333.98
2023-03-21T19:28:54.443Z,96336.62
2023-03-21T19:31:23.500Z,96337.77
2023-03-21T19:33:50.536Z,96339.94
2023-03-21T19:36:22.127Z,96341.59
2023-03-21T19:38:49.874Z,96342.52
2023-03-21T19:41:18.036Z,96340.16
2023-03-21T19:43:54.161Z,96338.73
2023-03-21T19:46:24.093Z,96336.42
2023-03-21T19:48:50.782Z,96336.98
2023-03-21T19:51:28.346Z,96335.62
2023-03-21T19:53:56.802Z,96334.58
2023-03-21T19:56:26.733Z,96335.70
2023-03-21T19:58:57.122Z,96335.10
2023-03-21T20:01:24.410Z,96331.30
2023-03-21T20:03:51.649Z,96332.03
2023-03-21T20:06:18.963Z,96337.95
2023-03-21T20:11:33.039Z,96331.31
2023-03-21T20:14:02.246Z,96334.09
2023-03-21T20:16:34.647Z,96332.93
2023-03-21T20:19:08.223Z,96332.15
2023-03-21T20:21:46.619Z,96332.79
2023-03-21T20:24:16.147Z,96333.13
2023-03-21T20:26:44.432Z,96334.69
2023-03-21T20:30:05.491Z,96337.45
2023-03-21T20:31:57.913Z,96332.10
2023-03-21T20:34:24.800Z,96332.69
2023-03-21T20:36:52.701Z,96334.98
2023-03-21T20:39:19.643Z,96334.88
2023-03-21T20:41:46.235Z,96336.37
2023-03-21T20:44:48.383Z,96338.31
2023-03-21T20:46:59.826Z,96333.38
2023-03-21T20:49:27.110Z,96335.33
2023-03-21T20:54:41.582Z,96333.16
2023-03-21T20:57:08.233Z,96337.22
2023-03-21T20:59:34.856Z,96334.73
2023-03-21T21:02:02.459Z,96330.21
2023-03-21T21:05:08.031Z,96333.36
2023-03-21T21:07:20.261Z,96334.75
2023-03-21T21:09:48.050Z,96332.15
2023-03-21T21:12:15.904Z,96331.11
2023-03-21T21:14:43.022Z,96330.70
2023-03-21T21:19:56.321Z,96332.46
2023-03-21T21:22:22.985Z,96326.16
2023-03-21T21:24:49.533Z,96325.36
2023-03-21T21:27:16.164Z,96329.88
2023-03-21T21:29:42.997Z,96335.56
2023-03-21T21:32:10.503Z,96339.62
2023-03-21T21:34:36.974Z,96335.47
2023-03-21T21:37:03.558Z,96334.45
2023-03-21T21:39:34.438Z,96333.15
2023-03-21T21:42:01.572Z,96331.60
2023-03-21T21:44:28.114Z,96329.33
2023-03-21T21:46:54.849Z,96331.70
2023-03-21T21:49:21.328Z,96331.10
2023-03-21T21:51:48.097Z,96336.06
2023-03-21T21:54:17.434Z,96338.59
2023-03-21T21:56:47.621Z,96340.34
2023-03-21T21:59:17.943Z,96344.80
2023-03-21T22:01:45.890Z,96343.96
2023-03-21T22:04:13.677Z,96349.45
2023-03-21T22:06:41.619Z,96353.95
2023-03-21T22:09:08.532Z,96354.74
2023-03-21T22:11:35.660Z,96348.88
2023-03-21T22:14:02.624Z,96352.70
2023-03-21T22:16:29.278Z,96351.52
2023-03-21T22:18:55.930Z,96351.46
2023-03-21T22:21:22.915Z,96350.61
2023-03-21T22:23:49.728Z,96356.58
2023-03-21T22:26:16.560Z,96353.95
2023-03-21T22:28:43.591Z,96354.45
2023-03-21T22:31:13.340Z,96355.61
2023-03-21T22:33:39.902Z,96354.04
2023-03-21T22:36:06.993Z,96359.29
2023-03-21T22:38:34.186Z,96359.73
2023-03-21T22:41:03.426Z,96363.20
2023-03-21T22:43:33.386Z,96366.85
2023-03-21T22:46:01.938Z,96367.40
2023-03-21T22:48:31.759Z,96367.98
2023-03-21T22:50:59.283Z,96371.14
2023-03-21T22:53:25.885Z,96375.83
2023-03-21T22:55:52.475Z,96376.01
2023-03-21T22:58:19.170Z,96369.55
2023-03-21T23:00:46.498Z,96370.35
2023-03-21T23:03:15.835Z,96366.77
2023-03-21T23:05:43.870Z,96370.31
2023-03-21T23:08:10.938Z,96365.87
2023-03-21T23:10:39.776Z,96362.47
2023-03-21T23:13:06.584Z,96364.60
2023-03-21T23:15:33.301Z,96365.39
2023-03-21T23:17:59.850Z,96367.19
2023-03-21T23:20:26.514Z,96362.30
2023-03-21T23:22:53.135Z,96364.48
2023-03-21T23:25:19.807Z,96364.31
2023-03-21T23:27:47.030Z,96367.91
2023-03-21T23:30:14.253Z,96370.07
2023-03-21T23:32:41.027Z,96368.86
2023-03-21T23:35:08.591Z,96369.73
2023-03-21T23:37:35.249Z,96371.80
2023-03-21T23:40:03.632Z,96368.49
2023-03-21T23:42:30.236Z,96371.56
2023-03-21T23:44:56.875Z,96369.44
2023-03-21T23:47:23.370Z,96371.63
2023-03-21T23:49:52.210Z,96373.00
2023-03-21T23:52:18.889Z,96372.61
2023-03-21T23:54:45.532Z,96373.05
2023-03-21T23:57:12.166Z,96371.77
2023-03-21T23:59:38.684Z,96365.66
